Friday, July 20, 2018, 12:44 PM EDT
Back to Local

KBGM, Binghamton Regional Airport

Location: Johnson City, NY, United States Lat: 42.2
Local Time: 12:44 PM EDT (16:44 GMT) Lon: -75.983
Time Zone: US/Eastern Elev: 1637 ft

Show me the last for .
Show Coded

Time T Td Feel RH Dir Speed Gust Alt SLP Vis Weather Sky Remarks
2018-07-20 11:53 74 57 77 55 210° 9 - 30.16 30.13 10 SCT042 None
2018-07-20 10:53 73 56 77 55 Variable 7 - 30.17 30.15 10 CLR None
2018-07-20 09:53 70 57 - 63 Variable 3 - 30.17 30.15 10 CLR None
2018-07-20 08:53 66 55 - 67 Variable 3 - 30.17 30.15 10 CLR None
2018-07-20 07:53 61 52 - 72 140° 7 - 30.17 30.14 10 CLR 6-hr Min Temp (8am): 53.1°F
6-hr Max Temp (8am): 61.0°F
2018-07-20 06:53 58 50 - 74 150° 3 - 30.16 30.14 10 CLR None
2018-07-20 05:53 53 50 - 89 140° 5 - 30.15 30.13 10 CLR None
2018-07-20 04:53 56 49 - 77 150° 6 - 30.14 30.12 10 CLR None
2018-07-20 03:53 57 50 - 77 150° 5 - 30.14 30.11 10 CLR None
2018-07-20 02:53 59 50 - 72 140° 5 - 30.14 30.12 10 CLR None
2018-07-20 01:53 59 51 - 74 150° 5 - 30.14 30.12 10 CLR 6-hr Min Temp (2am): 59.0°F
6-hr Max Temp (2am): 72.0°F
2018-07-20 00:53 61 51 - 69 150° 5 - 30.14 30.11 10 CLR 24-hr Min Temp (1am): 51.1°F
24-hr Max Temp (1am): 75.0°F
2018-07-19 23:53 65 50 - 58 160° 6 - 30.13 30.11 10 CLR None
2018-07-19 22:53 64 48 - 55 130° 5 - 30.13 30.11 10 CLR None
2018-07-19 21:53 68 46 - 45 80° 3 - 30.13 30.11 10 CLR None
2018-07-19 20:53 69 49 - 48 50° 3 - 30.12 30.10 10 CLR None
2018-07-19 19:53 72 49 76 44 300° 5 - 30.12 30.10 10 CLR 6-hr Min Temp (8pm): 71.1°F
6-hr Max Temp (8pm): 75.0°F
2018-07-19 18:53 74 50 76 42 280° 7 - 30.12 30.10 10 CLR None
2018-07-19 17:53 74 49 76 41 250° 6 - 30.11 30.09 10 CLR None
2018-07-19 16:53 75 43 - 31 Variable 3 - 30.12 30.10 10 CLR None
2018-07-19 15:53 75 43 - 31 Variable 3 - 30.12 30.11 10 CLR None
2018-07-19 14:53 72 44 - 36 - Calm - 30.14 30.12 10 CLR None
2018-07-19 13:53 71 42 - 35 - Calm - 30.15 30.13 10 CLR 6-hr Min Temp (2pm): 57.0°F
6-hr Max Temp (2pm): 71.1°F
2018-07-19 12:53 70 46 - 42 - Calm - 30.15 30.14 10 CLR None

Support USWX by starting your Amazon purchase here.